sensor_id;sensor_type;location;lat;lon;timestamp;pressure;altitude;pressure_sealevel;temperature;humidity
6028;BME280;3042;43.194;27.646;2023-10-09T00:01:50;102270.94;;;20.25;100.00
6028;BME280;3042;43.194;27.646;2023-10-09T00:04:19;102338.25;;;20.52;100.00
6028;BME280;3042;43.194;27.646;2023-10-09T00:06:47;102336.38;;;20.48;100.00
6028;BME280;3042;43.194;27.646;2023-10-09T00:09:18;102340.31;;;20.33;100.00
6028;BME280;3042;43.194;27.646;2023-10-09T00:12:07;102309.22;;;19.88;100.00
6028;BME280;3042;43.194;27.646;2023-10-09T00:14:36;102345.28;;;19.95;100.00
6028;BME280;3042;43.194;27.646;2023-10-09T00:17:06;102346.47;;;19.78;100.00
6028;BME280;3042;43.194;27.646;2023-10-09T00:19:46;102294.66;;;19.45;100.00
6028;BME280;3042;43.194;27.646;2023-10-09T00:22:17;102345.66;;;19.80;100.00
6028;BME280;3042;43.194;27.646;2023-10-09T00:24:56;101959.91;;;17.77;100.00
6028;BME280;3042;43.194;27.646;2023-10-09T00:27:43;102278.19;;;19.75;100.00
6028;BME280;3042;43.194;27.646;2023-10-09T00:30:12;102309.84;;;19.81;100.00
6028;BME280;3042;43.194;27.646;2023-10-09T00:32:44;102168.66;;;18.85;100.00
6028;BME280;3042;43.194;27.646;2023-10-09T00:35:18;102332.31;;;19.73;100.00
6028;BME280;3042;43.194;27.646;2023-10-09T00:38:07;102265.75;;;19.16;100.00
6028;BME280;3042;43.194;27.646;2023-10-09T00:40:41;102326.97;;;19.70;100.00
6028;BME280;3042;43.194;27.646;2023-10-09T00:43:14;102266.47;;;19.12;100.00
6028;BME280;3042;43.194;27.646;2023-10-09T00:45:46;102334.94;;;19.73;100.00
6028;BME280;3042;43.194;27.646;2023-10-09T00:48:16;102331.81;;;19.85;100.00
6028;BME280;3042;43.194;27.646;2023-10-09T00:50:50;102330.72;;;20.05;100.00
6028;BME280;3042;43.194;27.646;2023-10-09T00:53:20;102326.84;;;20.21;100.00
6028;BME280;3042;43.194;27.646;2023-10-09T00:55:57;102296.75;;;20.10;100.00
6028;BME280;3042;43.194;27.646;2023-10-09T00:58:30;102318.97;;;20.22;100.00
6028;BME280;3042;43.194;27.646;2023-10-09T01:01:01;102316.88;;;20.11;100.00
6028;BME280;3042;43.194;27.646;2023-10-09T01:03:30;102298.94;;;19.96;100.00
6028;BME280;3042;43.194;27.646;2023-10-09T01:06:01;102328.78;;;20.28;100.00
6028;BME280;3042;43.194;27.646;2023-10-09T01:08:42;102298.63;;;20.14;100.00
6028;BME280;3042;43.194;27.646;2023-10-09T01:11:14;102264.50;;;19.85;100.00
6028;BME280;3042;43.194;27.646;2023-10-09T01:13:47;102272.00;;;19.73;100.00
6028;BME280;3042;43.194;27.646;2023-10-09T01:16:21;102341.94;;;19.99;100.00
6028;BME280;3042;43.194;27.646;2023-10-09T01:18:50;102341.22;;;19.78;100.00
6028;BME280;3042;43.194;27.646;2023-10-09T01:21:18;102348.84;;;19.70;100.00
6028;BME280;3042;43.194;27.646;2023-10-09T01:23:52;102350.81;;;19.77;100.00
6028;BME280;3042;43.194;27.646;2023-10-09T01:26:34;102355.41;;;19.83;100.00
6028;BME280;3042;43.194;27.646;2023-10-09T01:29:10;102358.13;;;19.88;100.00
6028;BME280;3042;43.194;27.646;2023-10-09T01:31:40;102361.13;;;19.98;100.00
6028;BME280;3042;43.194;27.646;2023-10-09T01:34:18;102371.91;;;20.08;100.00
6028;BME280;3042;43.194;27.646;2023-10-09T01:36:50;102277.47;;;19.53;100.00
6028;BME280;3042;43.194;27.646;2023-10-09T01:39:22;102335.63;;;19.94;100.00
6028;BME280;3042;43.194;27.646;2023-10-09T01:41:54;102393.69;;;20.32;100.00
6028;BME280;3042;43.194;27.646;2023-10-09T01:44:26;102397.84;;;20.26;100.00
6028;BME280;3042;43.194;27.646;2023-10-09T01:46:56;102390.50;;;20.15;99.06
6028;BME280;3042;43.194;27.646;2023-10-09T01:49:24;102379.69;;;19.77;98.91
6028;BME280;3042;43.194;27.646;2023-10-09T01:51:57;102422.72;;;19.58;97.98
6028;BME280;3042;43.194;27.646;2023-10-09T01:54:35;102410.03;;;19.69;98.96
6028;BME280;3042;43.194;27.646;2023-10-09T01:57:04;102403.13;;;19.73;99.10
6028;BME280;3042;43.194;27.646;2023-10-09T01:59:38;102266.38;;;18.84;98.74
6028;BME280;3042;43.194;27.646;2023-10-09T02:02:11;102408.00;;;19.62;97.73
6028;BME280;3042;43.194;27.646;2023-10-09T02:04:58;102336.72;;;18.97;97.71
6028;BME280;3042;43.194;27.646;2023-10-09T02:07:49;102427.13;;;19.34;97.28
6028;BME280;3042;43.194;27.646;2023-10-09T02:10:20;102440.53;;;19.17;97.64
6028;BME280;3042;43.194;27.646;2023-10-09T02:12:58;102301.13;;;18.31;97.72
6028;BME280;3042;43.194;27.646;2023-10-09T02:15:25;102353.06;;;18.67;97.45
6028;BME280;3042;43.194;27.646;2023-10-09T02:18:06;102352.59;;;18.55;97.76
6028;BME280;3042;43.194;27.646;2023-10-09T02:20:44;102449.31;;;18.95;97.74
6028;BME280;3042;43.194;27.646;2023-10-09T02:23:12;102455.22;;;18.90;98.01
6028;BME280;3042;43.194;27.646;2023-10-09T02:25:42;102469.63;;;18.79;98.72
6028;BME280;3042;43.194;27.646;2023-10-09T02:28:10;102482.44;;;18.72;98.40
6028;BME280;3042;43.194;27.646;2023-10-09T02:30:44;102484.38;;;18.76;99.47
6028;BME280;3042;43.194;27.646;2023-10-09T02:33:13;102497.91;;;18.87;99.44
6028;BME280;3042;43.194;27.646;2023-10-09T02:35:46;102490.84;;;18.85;99.11
6028;BME280;3042;43.194;27.646;2023-10-09T02:38:17;102458.66;;;18.89;98.95
6028;BME280;3042;43.194;27.646;2023-10-09T02:40:50;102480.91;;;18.77;99.19
6028;BME280;3042;43.194;27.646;2023-10-09T02:43:43;102480.66;;;18.71;100.00
6028;BME280;3042;43.194;27.646;2023-10-09T02:46:13;102480.59;;;18.70;100.00
6028;BME280;3042;43.194;27.646;2023-10-09T02:48:43;102406.97;;;18.17;100.00
6028;BME280;3042;43.194;27.646;2023-10-09T02:51:17;102499.81;;;18.70;100.00
6028;BME280;3042;43.194;27.646;2023-10-09T02:53:59;102458.03;;;18.51;100.00
6028;BME280;3042;43.194;27.646;2023-10-09T02:56:35;102508.69;;;18.95;100.00
6028;BME280;3042;43.194;27.646;2023-10-09T02:59:08;102511.88;;;19.10;100.00
6028;BME280;3042;43.194;27.646;2023-10-09T03:01:38;102491.38;;;19.23;100.00
6028;BME280;3042;43.194;27.646;2023-10-09T03:04:05;102498.28;;;19.21;99.90
6028;BME280;3042;43.194;27.646;2023-10-09T03:06:36;102513.06;;;18.96;98.34
6028;BME280;3042;43.194;27.646;2023-10-09T03:09:09;102517.84;;;18.84;98.64
6028;BME280;3042;43.194;27.646;2023-10-09T03:11:45;102533.31;;;18.77;98.12
6028;BME280;3042;43.194;27.646;2023-10-09T03:14:13;102395.88;;;18.02;98.23
6028;BME280;3042;43.194;27.646;2023-10-09T03:16:41;102525.28;;;18.74;96.73
6028;BME280;3042;43.194;27.646;2023-10-09T03:19:09;102536.38;;;18.67;95.25
6028;BME280;3042;43.194;27.646;2023-10-09T03:21:39;102545.59;;;18.79;95.08
6028;BME280;3042;43.194;27.646;2023-10-09T03:24:06;102510.44;;;18.73;94.27
6028;BME280;3042;43.194;27.646;2023-10-09T03:26:34;102546.13;;;18.71;92.57
6028;BME280;3042;43.194;27.646;2023-10-09T03:29:03;102393.19;;;18.00;92.71
6028;BME280;3042;43.194;27.646;2023-10-09T03:31:32;102541.00;;;18.74;91.81
6028;BME280;3042;43.194;27.646;2023-10-09T03:33:59;102543.78;;;18.77;91.64
6028;BME280;3042;43.194;27.646;2023-10-09T03:36:28;102547.72;;;18.89;91.95
6028;BME280;3042;43.194;27.646;2023-10-09T03:38:56;102551.19;;;18.88;92.10
6028;BME280;3042;43.194;27.646;2023-10-09T03:41:23;102558.78;;;18.82;90.57
6028;BME280;3042;43.194;27.646;2023-10-09T03:43:52;102563.06;;;18.80;90.05
6028;BME280;3042;43.194;27.646;2023-10-09T03:46:21;102563.63;;;18.72;90.60
6028;BME280;3042;43.194;27.646;2023-10-09T03:48:52;102564.09;;;18.62;91.53
6028;BME280;3042;43.194;27.646;2023-10-09T03:51:22;102582.34;;;18.61;90.71
6028;BME280;3042;43.194;27.646;2023-10-09T03:53:51;102473.13;;;17.72;87.98
6028;BME280;3042;43.194;27.646;2023-10-09T03:56:19;102588.25;;;18.34;85.32
6028;BME280;3042;43.194;27.646;2023-10-09T03:58:48;102362.00;;;17.21;84.82
6028;BME280;3042;43.194;27.646;2023-10-09T04:01:16;102580.44;;;18.56;84.33
6028;BME280;3042;43.194;27.646;2023-10-09T04:03:52;102585.03;;;18.62;83.25
6028;BME280;3042;43.194;27.646;2023-10-09T04:06:21;102469.00;;;17.99;82.27
6028;BME280;3042;43.194;27.646;2023-10-09T04:08:48;102600.63;;;18.38;78.60
6028;BME280;3042;43.194;27.646;2023-10-09T04:11:17;102398.31;;;16.95;77.81
6028;BME280;3042;43.194;27.646;2023-10-09T04:13:48;102610.94;;;18.35;78.07
6028;BME280;3042;43.194;27.646;2023-10-09T04:16:19;102615.41;;;18.38;78.00
6028;BME280;3042;43.194;27.646;2023-10-09T04:19:18;102626.78;;;18.17;76.71
6028;BME280;3042;43.194;27.646;2023-10-09T04:21:48;102574.44;;;17.78;77.14
6028;BME280;3042;43.194;27.646;2023-10-09T04:24:14;102598.22;;;18.02;76.35
6028;BME280;3042;43.194;27.646;2023-10-09T04:26:50;102608.88;;;18.07;76.49
6028;BME280;3042;43.194;27.646;2023-10-09T04:29:22;102616.94;;;17.92;75.15
6028;BME280;3042;43.194;27.646;2023-10-09T04:32:04;102496.75;;;17.35;76.35
6028;BME280;3042;43.194;27.646;2023-10-09T04:34:35;102646.44;;;18.28;76.48
6028;BME280;3042;43.194;27.646;2023-10-09T04:37:01;102659.41;;;18.06;76.89
6028;BME280;3042;43.194;27.646;2023-10-09T04:39:45;102658.47;;;17.84;77.31
6028;BME280;3042;43.194;27.646;2023-10-09T04:42:26;102633.09;;;17.64;77.22
6028;BME280;3042;43.194;27.646;2023-10-09T04:45:03;102670.34;;;17.60;77.66
6028;BME280;3042;43.194;27.646;2023-10-09T04:47:47;102664.47;;;17.64;77.80
6028;BME280;3042;43.194;27.646;2023-10-09T04:50:25;102658.69;;;17.71;78.05
6028;BME280;3042;43.194;27.646;2023-10-09T04:53:18;102606.50;;;17.55;79.42
6028;BME280;3042;43.194;27.646;2023-10-09T04:55:50;102612.16;;;17.82;79.66
6028;BME280;3042;43.194;27.646;2023-10-09T04:58:24;102638.41;;;17.65;79.74
6028;BME280;3042;43.194;27.646;2023-10-09T05:00:52;102565.16;;;17.46;79.90
6028;BME280;3042;43.194;27.646;2023-10-09T05:03:37;102655.72;;;18.01;79.86
6028;BME280;3042;43.194;27.646;2023-10-09T05:06:12;102658.53;;;18.05;80.26
6028;BME280;3042;43.194;27.646;2023-10-09T05:09:09;102606.56;;;17.93;80.67
6028;BME280;3042;43.194;27.646;2023-10-09T05:11:38;102538.41;;;17.71;80.14
6028;BME280;3042;43.194;27.646;2023-10-09T05:14:22;102674.41;;;18.29;79.09
6028;BME280;3042;43.194;27.646;2023-10-09T05:17:03;102677.09;;;18.31;79.70
6028;BME280;3042;43.194;27.646;2023-10-09T05:19:35;102676.66;;;18.41;79.47
6028;BME280;3042;43.194;27.646;2023-10-09T05:22:21;102634.31;;;18.30;78.77
6028;BME280;3042;43.194;27.646;2023-10-09T05:25:02;102582.47;;;18.01;77.33
6028;BME280;3042;43.194;27.646;2023-10-09T05:27:41;102611.59;;;18.29;76.51
6028;BME280;3042;43.194;27.646;2023-10-09T05:30:16;102664.00;;;18.71;76.80
6028;BME280;3042;43.194;27.646;2023-10-09T05:32:53;102681.38;;;18.69;75.56
6028;BME280;3042;43.194;27.646;2023-10-09T05:35:48;102651.50;;;18.66;74.83
6028;BME280;3042;43.194;27.646;2023-10-09T05:38:33;102671.94;;;18.94;74.55
6028;BME280;3042;43.194;27.646;2023-10-09T05:41:12;102682.78;;;19.03;73.16
6028;BME280;3042;43.194;27.646;2023-10-09T05:43:56;102691.97;;;19.14;72.25
6028;BME280;3042;43.194;27.646;2023-10-09T05:46:40;102698.88;;;19.12;71.15
6028;BME280;3042;43.194;27.646;2023-10-09T05:49:28;102702.34;;;19.11;71.05
6028;BME280;3042;43.194;27.646;2023-10-09T05:52:11;102651.34;;;19.03;70.96
6028;BME280;3042;43.194;27.646;2023-10-09T05:54:54;102700.97;;;19.42;69.31
6028;BME280;3042;43.194;27.646;2023-10-09T05:57:41;102724.31;;;18.94;66.81
6028;BME280;3042;43.194;27.646;2023-10-09T06:00:25;102718.66;;;19.04;67.03
6028;BME280;3042;43.194;27.646;2023-10-09T06:03:10;102452.38;;;17.77;66.49
6028;BME280;3042;43.194;27.646;2023-10-09T06:05:51;102722.53;;;19.35;66.56
6028;BME280;3042;43.194;27.646;2023-10-09T06:08:30;102721.59;;;19.55;65.05
6028;BME280;3042;43.194;27.646;2023-10-09T06:11:13;102736.63;;;19.38;64.19
6028;BME280;3042;43.194;27.646;2023-10-09T06:13:55;102694.81;;;19.42;64.15
6028;BME280;3042;43.194;27.646;2023-10-09T06:16:29;102675.13;;;18.87;62.71
6028;BME280;3042;43.194;27.646;2023-10-09T06:19:07;102682.94;;;18.66;62.61
6028;BME280;3042;43.194;27.646;2023-10-09T06:21:52;102744.66;;;19.21;62.53
6028;BME280;3042;43.194;27.646;2023-10-09T06:24:42;102748.38;;;19.26;62.12
6028;BME280;3042;43.194;27.646;2023-10-09T06:27:22;102735.19;;;19.68;62.33
6028;BME280;3042;43.194;27.646;2023-10-09T06:30:11;102739.66;;;19.27;61.36
6028;BME280;3042;43.194;27.646;2023-10-09T06:32:50;102724.50;;;19.40;60.96
6028;BME280;3042;43.194;27.646;2023-10-09T06:35:17;102555.47;;;18.65;61.52
6028;BME280;3042;43.194;27.646;2023-10-09T06:37:48;102730.09;;;19.50;59.25
6028;BME280;3042;43.194;27.646;2023-10-09T06:40:30;102719.09;;;19.58;59.57
6028;BME280;3042;43.194;27.646;2023-10-09T06:43:16;102550.31;;;18.45;59.41
6028;BME280;3042;43.194;27.646;2023-10-09T06:45:53;102734.00;;;19.38;59.23
6028;BME280;3042;43.194;27.646;2023-10-09T06:48:23;102738.13;;;19.32;59.16
6028;BME280;3042;43.194;27.646;2023-10-09T06:51:12;102741.84;;;19.37;58.49
6028;BME280;3042;43.194;27.646;2023-10-09T06:54:02;102654.25;;;19.32;59.88
6028;BME280;3042;43.194;27.646;2023-10-09T06:56:33;102739.38;;;19.85;59.34
6028;BME280;3042;43.194;27.646;2023-10-09T06:59:15;102692.25;;;19.66;56.61
6028;BME280;3042;43.194;27.646;2023-10-09T07:01:48;102733.19;;;19.83;55.15
6028;BME280;3042;43.194;27.646;2023-10-09T07:04:37;102638.84;;;19.64;56.15
6028;BME280;3042;43.194;27.646;2023-10-09T07:07:21;102742.09;;;20.11;54.81
6028;BME280;3042;43.194;27.646;2023-10-09T07:09:51;102730.97;;;20.18;53.43
6028;BME280;3042;43.194;27.646;2023-10-09T07:12:36;102733.78;;;19.98;53.10
6028;BME280;3042;43.194;27.646;2023-10-09T07:15:10;102722.19;;;20.16;52.74
6028;BME280;3042;43.194;27.646;2023-10-09T07:17:54;102527.47;;;19.07;53.18
6028;BME280;3042;43.194;27.646;2023-10-09T07:20:21;102719.13;;;20.53;52.37
6028;BME280;3042;43.194;27.646;2023-10-09T07:23:03;102632.47;;;20.03;52.32
6028;BME280;3042;43.194;27.646;2023-10-09T07:25:47;102695.00;;;20.15;52.03
6028;BME280;3042;43.194;27.646;2023-10-09T07:28:24;102712.06;;;20.76;52.57
6028;BME280;3042;43.194;27.646;2023-10-09T07:31:16;102713.66;;;20.71;51.04
6028;BME280;3042;43.194;27.646;2023-10-09T07:33:51;102718.47;;;20.11;50.09
6028;BME280;3042;43.194;27.646;2023-10-09T07:36:22;102681.75;;;20.36;50.86
6028;BME280;3042;43.194;27.646;2023-10-09T07:39:04;102685.69;;;20.23;50.25
6028;BME280;3042;43.194;27.646;2023-10-09T07:41:39;102707.44;;;20.69;50.81
6028;BME280;3042;43.194;27.646;2023-10-09T07:44:10;102710.38;;;20.77;51.59
6028;BME280;3042;43.194;27.646;2023-10-09T07:47:05;102524.28;;;19.63;51.03
6028;BME280;3042;43.194;27.646;2023-10-09T07:49:45;102711.66;;;20.64;51.37
6028;BME280;3042;43.194;27.646;2023-10-09T07:52:24;102657.19;;;20.34;51.21
6028;BME280;3042;43.194;27.646;2023-10-09T07:54:51;102720.03;;;20.30;51.18
6028;BME280;3042;43.194;27.646;2023-10-09T07:57:27;102705.16;;;20.54;51.42
6028;BME280;3042;43.194;27.646;2023-10-09T08:00:05;102696.63;;;20.85;51.40
6028;BME280;3042;43.194;27.646;2023-10-09T08:03:00;102702.88;;;20.63;51.18
6028;BME280;3042;43.194;27.646;2023-10-09T08:05:29;102619.97;;;19.96;50.84
6028;BME280;3042;43.194;27.646;2023-10-09T08:08:01;102715.38;;;20.21;50.84
6028;BME280;3042;43.194;27.646;2023-10-09T08:10:54;102596.28;;;19.71;51.23
6028;BME280;3042;43.194;27.646;2023-10-09T08:13:38;102715.63;;;20.05;50.89
6028;BME280;3042;43.194;27.646;2023-10-09T08:16:22;102700.59;;;20.24;50.90
6028;BME280;3042;43.194;27.646;2023-10-09T08:19:03;102697.03;;;20.47;51.37
6028;BME280;3042;43.194;27.646;2023-10-09T08:21:54;102661.53;;;20.58;50.83
6028;BME280;3042;43.194;27.646;2023-10-09T08:25:03;102521.66;;;19.63;51.34
6028;BME280;3042;43.194;27.646;2023-10-09T08:27:31;102508.22;;;20.03;50.99
6028;BME280;3042;43.194;27.646;2023-10-09T08:30:20;102680.94;;;21.14;50.75
6028;BME280;3042;43.194;27.646;2023-10-09T08:33:07;102685.25;;;21.12;50.30
6028;BME280;3042;43.194;27.646;2023-10-09T08:35:49;102674.91;;;21.18;49.87
6028;BME280;3042;43.194;27.646;2023-10-09T08:38:17;102659.69;;;21.37;49.71
6028;BME280;3042;43.194;27.646;2023-10-09T08:40:49;102540.28;;;20.20;49.83
6028;BME280;3042;43.194;27.646;2023-10-09T08:43:21;102697.25;;;20.29;49.48
6028;BME280;3042;43.194;27.646;2023-10-09T08:45:49;102476.19;;;19.38;49.90
6028;BME280;3042;43.194;27.646;2023-10-09T08:48:18;102676.78;;;20.95;49.85
6028;BME280;3042;43.194;27.646;2023-10-09T08:50:49;102682.50;;;20.82;49.24
6028;BME280;3042;43.194;27.646;2023-10-09T08:53:16;102682.84;;;20.93;49.38
6028;BME280;3042;43.194;27.646;2023-10-09T08:55:44;102680.97;;;20.89;49.95
6028;BME280;3042;43.194;27.646;2023-10-09T08:58:13;102694.47;;;20.24;50.25
6028;BME280;3042;43.194;27.646;2023-10-09T09:00:44;102468.16;;;19.57;50.16
6028;BME280;3042;43.194;27.646;2023-10-09T09:03:13;102665.78;;;20.80;49.68
6028;BME280;3042;43.194;27.646;2023-10-09T09:05:42;102688.06;;;20.41;51.53
6028;BME280;3042;43.194;27.646;2023-10-09T09:08:23;102638.44;;;20.23;50.83
6028;BME280;3042;43.194;27.646;2023-10-09T09:10:57;102690.41;;;20.32;50.38
6028;BME280;3042;43.194;27.646;2023-10-09T09:13:31;102659.44;;;20.73;51.11
6028;BME280;3042;43.194;27.646;2023-10-09T09:15:59;102659.81;;;20.85;49.81
6028;BME280;3042;43.194;27.646;2023-10-09T09:18:28;102643.63;;;21.27;50.13
6028;BME280;3042;43.194;27.646;2023-10-09T09:21:16;102647.72;;;21.45;49.72
6028;BME280;3042;43.194;27.646;2023-10-09T09:23:55;102657.31;;;20.89;50.04
6028;BME280;3042;43.194;27.646;2023-10-09T09:26:36;102642.06;;;20.78;49.60
6028;BME280;3042;43.194;27.646;2023-10-09T09:29:11;102623.53;;;21.01;50.07
6028;BME280;3042;43.194;27.646;2023-10-09T09:31:38;102626.25;;;21.04;49.69
6028;BME280;3042;43.194;27.646;2023-10-09T09:34:07;102621.44;;;21.18;49.45
6028;BME280;3042;43.194;27.646;2023-10-09T09:36:52;102613.47;;;21.16;49.67
6028;BME280;3042;43.194;27.646;2023-10-09T09:39:25;102613.06;;;21.02;49.38
6028;BME280;3042;43.194;27.646;2023-10-09T09:41:56;102591.44;;;21.40;49.22
6028;BME280;3042;43.194;27.646;2023-10-09T09:44:31;102587.25;;;21.46;49.31
6028;BME280;3042;43.194;27.646;2023-10-09T09:46:59;102543.78;;;21.00;49.56
6028;BME280;3042;43.194;27.646;2023-10-09T09:49:27;102399.53;;;19.96;49.93
6028;BME280;3042;43.194;27.646;2023-10-09T09:52:00;102515.84;;;21.34;49.56
6028;BME280;3042;43.194;27.646;2023-10-09T09:54:30;102570.88;;;21.87;49.27
6028;BME280;3042;43.194;27.646;2023-10-09T09:57:02;102454.16;;;21.21;48.63
6028;BME280;3042;43.194;27.646;2023-10-09T09:59:38;102472.56;;;21.53;48.66
6028;BME280;3042;43.194;27.646;2023-10-09T10:02:23;102516.13;;;22.08;48.26
6028;BME280;3042;43.194;27.646;2023-10-09T10:04:55;102544.09;;;22.37;48.84
6028;BME280;3042;43.194;27.646;2023-10-09T10:07:26;102440.72;;;22.10;47.99
6028;BME280;3042;43.194;27.646;2023-10-09T10:09:57;102539.59;;;23.07;48.58
6028;BME280;3042;43.194;27.646;2023-10-09T10:12:49;102533.28;;;23.43;48.35
6028;BME280;3042;43.194;27.646;2023-10-09T10:18:56;102536.88;;;22.66;47.39
6028;BME280;3042;43.194;27.646;2023-10-09T10:21:33;102526.75;;;22.84;48.11
6028;BME280;3042;43.194;27.646;2023-10-09T10:24:42;102519.63;;;23.20;47.27
6028;BME280;3042;43.194;27.646;2023-10-09T10:27:20;102522.13;;;23.12;47.31
6028;BME280;3042;43.194;27.646;2023-10-09T10:30:28;102508.00;;;23.10;47.68
6028;BME280;3042;43.194;27.646;2023-10-09T10:33:03;102486.97;;;23.58;47.68
6028;BME280;3042;43.194;27.646;2023-10-09T10:35:39;102491.94;;;23.42;47.80
6028;BME280;3042;43.194;27.646;2023-10-09T10:38:28;102475.75;;;23.70;47.65
6028;BME280;3042;43.194;27.646;2023-10-09T10:41:10;102463.56;;;23.75;47.84
6028;BME280;3042;43.194;27.646;2023-10-09T10:43:40;102397.91;;;23.47;47.25
6028;BME280;3042;43.194;27.646;2023-10-09T10:46:24;102466.34;;;23.85;46.99
6028;BME280;3042;43.194;27.646;2023-10-09T10:48:56;102472.75;;;23.50;46.79
6028;BME280;3042;43.194;27.646;2023-10-09T10:51:26;102463.19;;;23.57;47.33
6028;BME280;3042;43.194;27.646;2023-10-09T10:54:01;102473.56;;;23.48;47.28
6028;BME280;3042;43.194;27.646;2023-10-09T10:56:56;102434.53;;;22.87;47.78
6028;BME280;3042;43.194;27.646;2023-10-09T10:59:29;102441.38;;;23.20;47.81
6028;BME280;3042;43.194;27.646;2023-10-09T11:02:09;102462.38;;;23.15;47.86
6028;BME280;3042;43.194;27.646;2023-10-09T11:04:48;102450.03;;;23.11;48.04
6028;BME280;3042;43.194;27.646;2023-10-09T11:07:21;102324.03;;;22.52;48.75
6028;BME280;3042;43.194;27.646;2023-10-09T11:09:53;102427.97;;;23.55;48.56
6028;BME280;3042;43.194;27.646;2023-10-09T11:12:45;102410.91;;;23.85;48.53
6028;BME280;3042;43.194;27.646;2023-10-09T11:15:40;102327.94;;;23.18;48.27
6028;BME280;3042;43.194;27.646;2023-10-09T11:18:22;102428.63;;;23.43;48.72
6028;BME280;3042;43.194;27.646;2023-10-09T11:20:53;102423.91;;;23.25;48.63
6028;BME280;3042;43.194;27.646;2023-10-09T11:23:43;102424.88;;;23.30;48.16
6028;BME280;3042;43.194;27.646;2023-10-09T11:26:19;102408.56;;;24.03;48.21
6028;BME280;3042;43.194;27.646;2023-10-09T11:31:59;102396.19;;;24.58;47.85
6028;BME280;3042;43.194;27.646;2023-10-09T11:34:29;102390.97;;;24.68;46.97
6028;BME280;3042;43.194;27.646;2023-10-09T11:36:58;102383.84;;;24.60;47.16
6028;BME280;3042;43.194;27.646;2023-10-09T11:39:28;102375.91;;;24.60;47.00
6028;BME280;3042;43.194;27.646;2023-10-09T11:42:02;102301.63;;;24.37;46.94
6028;BME280;3042;43.194;27.646;2023-10-09T11:44:38;102229.53;;;23.80;46.67
6028;BME280;3042;43.194;27.646;2023-10-09T11:47:08;102362.88;;;24.73;46.75
6028;BME280;3042;43.194;27.646;2023-10-09T11:49:51;102355.06;;;24.85;46.89
6028;BME280;3042;43.194;27.646;2023-10-09T11:52:56;102361.91;;;24.68;46.56
6028;BME280;3042;43.194;27.646;2023-10-09T11:55:35;102317.25;;;23.64;47.09
6028;BME280;3042;43.194;27.646;2023-10-09T11:58:03;102360.16;;;24.04;47.70
6028;BME280;3042;43.194;27.646;2023-10-09T12:00:31;102311.31;;;23.76;48.02
6028;BME280;3042;43.194;27.646;2023-10-09T12:03:10;102328.69;;;24.19;47.84
6028;BME280;3042;43.194;27.646;2023-10-09T12:05:39;102322.19;;;24.61;47.38
6028;BME280;3042;43.194;27.646;2023-10-09T12:08:11;102330.84;;;24.48;46.83
6028;BME280;3042;43.194;27.646;2023-10-09T12:10:41;102312.53;;;23.98;47.13
6028;BME280;3042;43.194;27.646;2023-10-09T12:13:09;102242.50;;;23.65;47.54
6028;BME280;3042;43.194;27.646;2023-10-09T12:15:36;102314.53;;;24.14;48.91
6028;BME280;3042;43.194;27.646;2023-10-09T12:18:06;102305.91;;;24.29;48.50
6028;BME280;3042;43.194;27.646;2023-10-09T12:20:42;102231.03;;;24.30;48.17
6028;BME280;3042;43.194;27.646;2023-10-09T12:23:15;102276.44;;;24.69;48.26
6028;BME280;3042;43.194;27.646;2023-10-09T12:25:42;102273.97;;;24.85;48.18
6028;BME280;3042;43.194;27.646;2023-10-09T12:28:12;102187.78;;;24.20;47.35
6028;BME280;3042;43.194;27.646;2023-10-09T12:30:46;102274.81;;;24.83;47.18
6028;BME280;3042;43.194;27.646;2023-10-09T12:33:17;102197.06;;;24.62;46.96
6028;BME280;3042;43.194;27.646;2023-10-09T12:35:46;102267.81;;;24.88;46.74
6028;BME280;3042;43.194;27.646;2023-10-09T12:38:14;102250.53;;;25.24;46.57
6028;BME280;3042;43.194;27.646;2023-10-09T12:40:44;102241.72;;;25.22;46.40
6028;BME280;3042;43.194;27.646;2023-10-09T12:43:17;102248.41;;;24.86;46.42
6028;BME280;3042;43.194;27.646;2023-10-09T12:45:47;102257.25;;;24.88;46.64
6028;BME280;3042;43.194;27.646;2023-10-09T12:48:14;102209.28;;;24.51;46.24
6028;BME280;3042;43.194;27.646;2023-10-09T12:50:41;102263.94;;;24.52;46.46
6028;BME280;3042;43.194;27.646;2023-10-09T12:53:11;102212.88;;;24.56;46.81
6028;BME280;3042;43.194;27.646;2023-10-09T12:55:43;102172.09;;;24.33;46.13
6028;BME280;3042;43.194;27.646;2023-10-09T12:58:11;102231.59;;;24.03;46.11
6028;BME280;3042;43.194;27.646;2023-10-09T13:00:42;102121.44;;;23.91;46.41
6028;BME280;3042;43.194;27.646;2023-10-09T13:03:14;102154.34;;;24.22;46.13
6028;BME280;3042;43.194;27.646;2023-10-09T13:05:45;102234.81;;;24.48;46.02
6028;BME280;3042;43.194;27.646;2023-10-09T13:08:22;102229.06;;;24.90;46.01
6028;BME280;3042;43.194;27.646;2023-10-09T13:10:50;102216.88;;;25.11;45.84
6028;BME280;3042;43.194;27.646;2023-10-09T13:13:27;102201.31;;;25.51;45.78
6028;BME280;3042;43.194;27.646;2023-10-09T13:16:08;102189.97;;;25.79;45.35
6028;BME280;3042;43.194;27.646;2023-10-09T13:18:39;102090.75;;;25.10;44.78
6028;BME280;3042;43.194;27.646;2023-10-09T13:21:06;102191.75;;;25.79;44.82
6028;BME280;3042;43.194;27.646;2023-10-09T13:23:34;102159.00;;;25.57;44.43
6028;BME280;3042;43.194;27.646;2023-10-09T13:26:13;102111.00;;;24.98;47.89
6028;BME280;3042;43.194;27.646;2023-10-09T13:28:50;102139.84;;;24.72;49.15
6028;BME280;3042;43.194;27.646;2023-10-09T13:31:18;102165.53;;;24.82;50.79
6028;BME280;3042;43.194;27.646;2023-10-09T13:33:46;102153.09;;;24.71;50.34
6028;BME280;3042;43.194;27.646;2023-10-09T13:36:14;102087.63;;;24.45;49.31
6028;BME280;3042;43.194;27.646;2023-10-09T13:38:54;102180.34;;;24.63;49.28
6028;BME280;3042;43.194;27.646;2023-10-09T13:41:22;102177.66;;;24.62;50.08
6028;BME280;3042;43.194;27.646;2023-10-09T13:43:54;102157.56;;;24.81;49.73
6028;BME280;3042;43.194;27.646;2023-10-09T13:46:23;102156.50;;;24.60;50.82
6028;BME280;3042;43.194;27.646;2023-10-09T13:48:50;102171.47;;;23.80;52.13